sensor_id;sensor_type;location;lat;lon;timestamp;P1;durP1;ratioP1;P2;durP2;ratioP2
21543;SDS011;10933;50.754;11.508;2023-09-19T00:01:39;2.10;;;1.67;;
21543;SDS011;10933;50.754;11.508;2023-09-19T00:04:07;1.30;;;1.20;;
21543;SDS011;10933;50.754;11.508;2023-09-19T00:06:34;1.50;;;1.38;;
21543;SDS011;10933;50.754;11.508;2023-09-19T00:09:01;1.92;;;1.27;;
21543;SDS011;10933;50.754;11.508;2023-09-19T00:11:28;5.00;;;1.35;;
21543;SDS011;10933;50.754;11.508;2023-09-19T00:13:54;1.58;;;1.20;;
21543;SDS011;10933;50.754;11.508;2023-09-19T00:16:24;1.35;;;1.00;;
21543;SDS011;10933;50.754;11.508;2023-09-19T00:18:50;5.20;;;1.30;;
21543;SDS011;10933;50.754;11.508;2023-09-19T00:21:17;2.13;;;1.05;;
21543;SDS011;10933;50.754;11.508;2023-09-19T00:23:44;1.95;;;1.20;;
21543;SDS011;10933;50.754;11.508;2023-09-19T00:26:10;1.58;;;1.15;;
21543;SDS011;10933;50.754;11.508;2023-09-19T00:28:37;1.63;;;1.52;;
21543;SDS011;10933;50.754;11.508;2023-09-19T00:31:04;3.22;;;1.63;;
21543;SDS011;10933;50.754;11.508;2023-09-19T00:33:33;1.63;;;1.45;;
21543;SDS011;10933;50.754;11.508;2023-09-19T00:35:59;2.45;;;1.40;;
21543;SDS011;10933;50.754;11.508;2023-09-19T00:38:29;1.98;;;1.48;;
21543;SDS011;10933;50.754;11.508;2023-09-19T00:40:56;1.52;;;1.42;;
21543;SDS011;10933;50.754;11.508;2023-09-19T00:43:24;1.70;;;1.42;;
21543;SDS011;10933;50.754;11.508;2023-09-19T00:45:53;1.60;;;1.50;;
21543;SDS011;10933;50.754;11.508;2023-09-19T00:48:23;1.55;;;1.40;;
21543;SDS011;10933;50.754;11.508;2023-09-19T00:50:52;1.60;;;1.50;;
21543;SDS011;10933;50.754;11.508;2023-09-19T00:53:19;2.65;;;1.65;;
21543;SDS011;10933;50.754;11.508;2023-09-19T00:55:48;2.38;;;1.60;;
21543;SDS011;10933;50.754;11.508;2023-09-19T00:58:18;1.55;;;1.40;;
21543;SDS011;10933;50.754;11.508;2023-09-19T01:00:46;1.20;;;1.20;;
21543;SDS011;10933;50.754;11.508;2023-09-19T01:03:13;1.35;;;1.10;;
21543;SDS011;10933;50.754;11.508;2023-09-19T01:05:39;3.28;;;1.10;;
21543;SDS011;10933;50.754;11.508;2023-09-19T01:08:05;2.97;;;1.20;;
21543;SDS011;10933;50.754;11.508;2023-09-19T01:10:32;1.85;;;1.48;;
21543;SDS011;10933;50.754;11.508;2023-09-19T01:18:50;2.25;;;1.30;;
21543;SDS011;10933;50.754;11.508;2023-09-19T01:21:57;3.65;;;1.67;;
21543;SDS011;10933;50.754;11.508;2023-09-19T01:30:32;1.77;;;1.60;;
21543;SDS011;10933;50.754;11.508;2023-09-19T01:33:04;1.65;;;1.55;;
21543;SDS011;10933;50.754;11.508;2023-09-19T01:35:31;2.20;;;1.35;;
21543;SDS011;10933;50.754;11.508;2023-09-19T01:37:59;2.45;;;1.40;;
21543;SDS011;10933;50.754;11.508;2023-09-19T01:40:25;1.50;;;1.40;;
21543;SDS011;10933;50.754;11.508;2023-09-19T01:43:12;2.13;;;1.30;;
21543;SDS011;10933;50.754;11.508;2023-09-19T01:45:59;1.42;;;1.33;;
21543;SDS011;10933;50.754;11.508;2023-09-19T01:51:13;1.50;;;1.40;;
21543;SDS011;10933;50.754;11.508;2023-09-19T01:54:02;1.40;;;1.15;;
21543;SDS011;10933;50.754;11.508;2023-09-19T01:56:37;1.40;;;1.30;;
21543;SDS011;10933;50.754;11.508;2023-09-19T01:59:28;1.13;;;1.08;;
21543;SDS011;10933;50.754;11.508;2023-09-19T02:02:23;3.85;;;1.50;;
21543;SDS011;10933;50.754;11.508;2023-09-19T02:04:52;4.45;;;1.40;;
21543;SDS011;10933;50.754;11.508;2023-09-19T02:07:20;1.75;;;1.45;;
21543;SDS011;10933;50.754;11.508;2023-09-19T02:09:47;1.23;;;1.13;;
21543;SDS011;10933;50.754;11.508;2023-09-19T02:12:13;3.38;;;1.20;;
21543;SDS011;10933;50.754;11.508;2023-09-19T02:14:40;1.58;;;1.38;;
21543;SDS011;10933;50.754;11.508;2023-09-19T02:17:06;1.55;;;1.20;;
21543;SDS011;10933;50.754;11.508;2023-09-19T02:19:34;1.50;;;1.40;;
21543;SDS011;10933;50.754;11.508;2023-09-19T02:22:03;1.40;;;1.23;;
21543;SDS011;10933;50.754;11.508;2023-09-19T02:24:35;1.42;;;1.30;;
21543;SDS011;10933;50.754;11.508;2023-09-19T02:27:02;2.78;;;1.38;;
21543;SDS011;10933;50.754;11.508;2023-09-19T02:29:29;1.83;;;1.35;;
21543;SDS011;10933;50.754;11.508;2023-09-19T02:31:55;10.13;;;1.50;;
21543;SDS011;10933;50.754;11.508;2023-09-19T02:34:22;1.40;;;1.30;;
21543;SDS011;10933;50.754;11.508;2023-09-19T02:36:48;1.42;;;1.08;;
21543;SDS011;10933;50.754;11.508;2023-09-19T02:39:14;1.20;;;1.15;;
21543;SDS011;10933;50.754;11.508;2023-09-19T02:41:41;1.05;;;1.05;;
21543;SDS011;10933;50.754;11.508;2023-09-19T02:44:07;1.73;;;1.20;;
21543;SDS011;10933;50.754;11.508;2023-09-19T02:46:34;1.80;;;1.45;;
21543;SDS011;10933;50.754;11.508;2023-09-19T02:49:03;1.13;;;1.13;;
21543;SDS011;10933;50.754;11.508;2023-09-19T02:51:32;1.50;;;1.40;;
21543;SDS011;10933;50.754;11.508;2023-09-19T02:53:59;1.48;;;1.30;;
21543;SDS011;10933;50.754;11.508;2023-09-19T02:56:25;1.88;;;1.45;;
21543;SDS011;10933;50.754;11.508;2023-09-19T02:58:51;1.60;;;1.50;;
21543;SDS011;10933;50.754;11.508;2023-09-19T03:01:24;1.23;;;1.13;;
21543;SDS011;10933;50.754;11.508;2023-09-19T03:03:50;1.65;;;1.55;;
21543;SDS011;10933;50.754;11.508;2023-09-19T03:06:16;1.60;;;1.20;;
21543;SDS011;10933;50.754;11.508;2023-09-19T03:08:45;1.25;;;1.15;;
21543;SDS011;10933;50.754;11.508;2023-09-19T03:11:12;1.02;;;1.02;;
21543;SDS011;10933;50.754;11.508;2023-09-19T03:13:40;1.40;;;1.30;;
21543;SDS011;10933;50.754;11.508;2023-09-19T03:16:07;1.23;;;1.13;;
21543;SDS011;10933;50.754;11.508;2023-09-19T03:18:34;1.20;;;1.10;;
21543;SDS011;10933;50.754;11.508;2023-09-19T03:21:00;2.50;;;1.02;;
21543;SDS011;10933;50.754;11.508;2023-09-19T03:23:27;4.32;;;1.35;;
21543;SDS011;10933;50.754;11.508;2023-09-19T03:25:54;4.75;;;1.05;;
21543;SDS011;10933;50.754;11.508;2023-09-19T03:28:21;1.35;;;1.25;;
21543;SDS011;10933;50.754;11.508;2023-09-19T03:30:58;6.20;;;5.90;;
21543;SDS011;10933;50.754;11.508;2023-09-19T03:33:25;1.85;;;1.75;;
21543;SDS011;10933;50.754;11.508;2023-09-19T03:35:52;1.98;;;1.88;;
21543;SDS011;10933;50.754;11.508;2023-09-19T03:38:19;2.65;;;1.70;;
21543;SDS011;10933;50.754;11.508;2023-09-19T03:40:47;1.50;;;1.35;;
21543;SDS011;10933;50.754;11.508;2023-09-19T03:43:13;2.40;;;2.20;;
21543;SDS011;10933;50.754;11.508;2023-09-19T03:45:40;1.50;;;1.40;;
21543;SDS011;10933;50.754;11.508;2023-09-19T03:48:09;3.58;;;3.38;;
21543;SDS011;10933;50.754;11.508;2023-09-19T03:50:35;2.03;;;1.92;;
21543;SDS011;10933;50.754;11.508;2023-09-19T03:53:02;1.17;;;1.08;;
21543;SDS011;10933;50.754;11.508;2023-09-19T03:55:28;1.35;;;1.25;;
21543;SDS011;10933;50.754;11.508;2023-09-19T03:57:57;0.90;;;0.90;;
21543;SDS011;10933;50.754;11.508;2023-09-19T04:00:23;1.45;;;1.20;;
21543;SDS011;10933;50.754;11.508;2023-09-19T04:02:51;3.67;;;3.47;;
21543;SDS011;10933;50.754;11.508;2023-09-19T04:05:18;1.52;;;1.42;;
21543;SDS011;10933;50.754;11.508;2023-09-19T04:07:44;2.60;;;2.42;;
21543;SDS011;10933;50.754;11.508;2023-09-19T04:10:10;2.85;;;1.58;;
21543;SDS011;10933;50.754;11.508;2023-09-19T04:12:37;4.30;;;4.00;;
21543;SDS011;10933;50.754;11.508;2023-09-19T04:15:04;4.90;;;4.55;;
21543;SDS011;10933;50.754;11.508;2023-09-19T04:17:31;8.30;;;6.28;;
21543;SDS011;10933;50.754;11.508;2023-09-19T04:20:00;10.10;;;9.20;;
21543;SDS011;10933;50.754;11.508;2023-09-19T04:22:26;20.05;;;18.30;;
21543;SDS011;10933;50.754;11.508;2023-09-19T04:24:52;12.15;;;8.50;;
21543;SDS011;10933;50.754;11.508;2023-09-19T04:27:18;5.95;;;5.55;;
21543;SDS011;10933;50.754;11.508;2023-09-19T04:29:45;3.88;;;3.67;;
21543;SDS011;10933;50.754;11.508;2023-09-19T04:32:11;1.83;;;1.73;;
21543;SDS011;10933;50.754;11.508;2023-09-19T04:34:38;1.45;;;1.35;;
21543;SDS011;10933;50.754;11.508;2023-09-19T04:37:04;3.08;;;1.65;;
21543;SDS011;10933;50.754;11.508;2023-09-19T04:39:30;1.38;;;1.27;;
21543;SDS011;10933;50.754;11.508;2023-09-19T04:41:56;1.98;;;1.30;;
21543;SDS011;10933;50.754;11.508;2023-09-19T04:44:23;2.88;;;1.50;;
21543;SDS011;10933;50.754;11.508;2023-09-19T04:46:49;1.20;;;1.10;;
21543;SDS011;10933;50.754;11.508;2023-09-19T04:49:16;1.83;;;1.73;;
21543;SDS011;10933;50.754;11.508;2023-09-19T04:51:43;2.83;;;1.63;;
21543;SDS011;10933;50.754;11.508;2023-09-19T04:54:12;2.08;;;1.95;;
21543;SDS011;10933;50.754;11.508;2023-09-19T04:56:38;2.10;;;1.70;;
21543;SDS011;10933;50.754;11.508;2023-09-19T04:59:05;1.65;;;1.55;;
21543;SDS011;10933;50.754;11.508;2023-09-19T05:01:31;1.52;;;1.15;;
21543;SDS011;10933;50.754;11.508;2023-09-19T05:03:57;1.63;;;1.40;;
21543;SDS011;10933;50.754;11.508;2023-09-19T05:06:24;3.58;;;1.65;;
21543;SDS011;10933;50.754;11.508;2023-09-19T05:08:51;1.70;;;1.60;;
21543;SDS011;10933;50.754;11.508;2023-09-19T05:11:20;1.50;;;1.30;;
21543;SDS011;10933;50.754;11.508;2023-09-19T05:13:48;3.20;;;1.70;;
21543;SDS011;10933;50.754;11.508;2023-09-19T05:16:20;3.67;;;1.73;;
21543;SDS011;10933;50.754;11.508;2023-09-19T05:18:47;5.90;;;4.25;;
21543;SDS011;10933;50.754;11.508;2023-09-19T05:21:14;4.22;;;3.92;;
21543;SDS011;10933;50.754;11.508;2023-09-19T05:23:40;3.65;;;3.35;;
21543;SDS011;10933;50.754;11.508;2023-09-19T05:26:07;3.63;;;3.33;;
21543;SDS011;10933;50.754;11.508;2023-09-19T05:28:33;5.78;;;3.50;;
21543;SDS011;10933;50.754;11.508;2023-09-19T05:31:00;5.05;;;3.40;;
21543;SDS011;10933;50.754;11.508;2023-09-19T05:33:27;5.38;;;3.13;;
21543;SDS011;10933;50.754;11.508;2023-09-19T05:35:56;4.47;;;2.53;;
21543;SDS011;10933;50.754;11.508;2023-09-19T05:38:22;3.97;;;2.78;;
21543;SDS011;10933;50.754;11.508;2023-09-19T05:40:50;3.92;;;2.28;;
21543;SDS011;10933;50.754;11.508;2023-09-19T05:43:16;2.75;;;2.55;;
21543;SDS011;10933;50.754;11.508;2023-09-19T05:45:43;3.08;;;2.58;;
21543;SDS011;10933;50.754;11.508;2023-09-19T05:48:13;3.45;;;3.25;;
21543;SDS011;10933;50.754;11.508;2023-09-19T05:50:41;3.53;;;3.28;;
21543;SDS011;10933;50.754;11.508;2023-09-19T05:53:07;5.35;;;3.53;;
21543;SDS011;10933;50.754;11.508;2023-09-19T05:55:36;6.85;;;4.18;;
21543;SDS011;10933;50.754;11.508;2023-09-19T05:58:03;3.50;;;3.30;;
21543;SDS011;10933;50.754;11.508;2023-09-19T06:00:30;2.92;;;2.72;;
21543;SDS011;10933;50.754;11.508;2023-09-19T06:02:57;2.60;;;2.40;;
21543;SDS011;10933;50.754;11.508;2023-09-19T06:05:24;1.35;;;1.25;;
21543;SDS011;10933;50.754;11.508;2023-09-19T06:07:52;0.80;;;0.77;;
21543;SDS011;10933;50.754;11.508;2023-09-19T06:10:18;0.90;;;0.90;;
21543;SDS011;10933;50.754;11.508;2023-09-19T06:12:48;2.13;;;0.90;;
21543;SDS011;10933;50.754;11.508;2023-09-19T06:15:15;1.13;;;1.02;;
21543;SDS011;10933;50.754;11.508;2023-09-19T06:17:47;2.08;;;0.90;;
21543;SDS011;10933;50.754;11.508;2023-09-19T06:20:14;4.32;;;1.10;;
21543;SDS011;10933;50.754;11.508;2023-09-19T06:22:42;1.85;;;1.02;;
21543;SDS011;10933;50.754;11.508;2023-09-19T06:25:09;1.15;;;0.90;;
21543;SDS011;10933;50.754;11.508;2023-09-19T06:27:39;1.73;;;0.82;;
21543;SDS011;10933;50.754;11.508;2023-09-19T06:30:09;0.82;;;0.82;;
21543;SDS011;10933;50.754;11.508;2023-09-19T06:32:36;1.02;;;0.85;;
21543;SDS011;10933;50.754;11.508;2023-09-19T06:35:03;1.02;;;0.93;;
21543;SDS011;10933;50.754;11.508;2023-09-19T06:37:32;1.77;;;0.88;;
21543;SDS011;10933;50.754;11.508;2023-09-19T06:40:00;1.80;;;1.70;;
21543;SDS011;10933;50.754;11.508;2023-09-19T06:42:26;1.95;;;1.30;;
21543;SDS011;10933;50.754;11.508;2023-09-19T06:44:53;1.00;;;0.90;;
21543;SDS011;10933;50.754;11.508;2023-09-19T06:47:19;0.88;;;0.70;;
21543;SDS011;10933;50.754;11.508;2023-09-19T06:49:45;1.58;;;0.70;;
21543;SDS011;10933;50.754;11.508;2023-09-19T06:52:13;0.70;;;0.70;;
21543;SDS011;10933;50.754;11.508;2023-09-19T06:54:39;1.05;;;0.80;;
21543;SDS011;10933;50.754;11.508;2023-09-19T06:57:06;0.80;;;0.80;;
21543;SDS011;10933;50.754;11.508;2023-09-19T06:59:35;0.88;;;0.65;;
21543;SDS011;10933;50.754;11.508;2023-09-19T07:02:02;0.98;;;0.85;;
21543;SDS011;10933;50.754;11.508;2023-09-19T07:04:31;1.17;;;0.70;;
21543;SDS011;10933;50.754;11.508;2023-09-19T07:06:57;0.80;;;0.73;;
21543;SDS011;10933;50.754;11.508;2023-09-19T07:09:23;1.83;;;0.68;;
21543;SDS011;10933;50.754;11.508;2023-09-19T07:11:52;4.10;;;0.90;;
21543;SDS011;10933;50.754;11.508;2023-09-19T07:14:18;1.20;;;0.80;;
21543;SDS011;10933;50.754;11.508;2023-09-19T07:16:44;1.27;;;0.80;;
21543;SDS011;10933;50.754;11.508;2023-09-19T07:19:12;1.30;;;0.70;;
21543;SDS011;10933;50.754;11.508;2023-09-19T07:21:40;1.52;;;0.90;;
21543;SDS011;10933;50.754;11.508;2023-09-19T07:24:07;0.80;;;0.57;;
21543;SDS011;10933;50.754;11.508;2023-09-19T07:26:33;1.00;;;0.80;;
21543;SDS011;10933;50.754;11.508;2023-09-19T07:29:00;0.82;;;0.75;;
21543;SDS011;10933;50.754;11.508;2023-09-19T07:31:29;2.13;;;0.73;;
21543;SDS011;10933;50.754;11.508;2023-09-19T07:33:56;0.70;;;0.70;;
21543;SDS011;10933;50.754;11.508;2023-09-19T07:36:22;0.80;;;0.68;;
21543;SDS011;10933;50.754;11.508;2023-09-19T07:38:49;4.13;;;0.70;;
21543;SDS011;10933;50.754;11.508;2023-09-19T07:41:15;0.70;;;0.70;;
21543;SDS011;10933;50.754;11.508;2023-09-19T07:43:41;1.23;;;0.80;;
21543;SDS011;10933;50.754;11.508;2023-09-19T07:46:09;1.77;;;0.68;;
21543;SDS011;10933;50.754;11.508;2023-09-19T07:48:36;2.28;;;0.70;;
21543;SDS011;10933;50.754;11.508;2023-09-19T07:51:06;1.02;;;0.60;;
21543;SDS011;10933;50.754;11.508;2023-09-19T07:53:34;1.27;;;0.68;;
21543;SDS011;10933;50.754;11.508;2023-09-19T07:56:04;0.82;;;0.70;;
21543;SDS011;10933;50.754;11.508;2023-09-19T07:58:31;0.60;;;0.60;;
21543;SDS011;10933;50.754;11.508;2023-09-19T08:01:08;0.60;;;0.57;;
21543;SDS011;10933;50.754;11.508;2023-09-19T08:03:35;0.75;;;0.75;;
21543;SDS011;10933;50.754;11.508;2023-09-19T08:06:06;0.75;;;0.43;;
21543;SDS011;10933;50.754;11.508;2023-09-19T08:08:33;0.90;;;0.50;;
21543;SDS011;10933;50.754;11.508;2023-09-19T08:11:02;2.25;;;0.50;;
21543;SDS011;10933;50.754;11.508;2023-09-19T08:13:36;1.00;;;0.80;;
21543;SDS011;10933;50.754;11.508;2023-09-19T08:16:08;1.15;;;0.80;;
21543;SDS011;10933;50.754;11.508;2023-09-19T08:18:37;1.40;;;1.10;;
21543;SDS011;10933;50.754;11.508;2023-09-19T08:21:07;1.38;;;1.00;;
21543;SDS011;10933;50.754;11.508;2023-09-19T08:23:39;1.00;;;0.90;;
21543;SDS011;10933;50.754;11.508;2023-09-19T08:26:05;0.98;;;0.80;;
21543;SDS011;10933;50.754;11.508;2023-09-19T08:28:36;0.90;;;0.40;;
21543;SDS011;10933;50.754;11.508;2023-09-19T08:31:05;1.13;;;0.40;;
21543;SDS011;10933;50.754;11.508;2023-09-19T08:33:36;2.10;;;1.88;;
21543;SDS011;10933;50.754;11.508;2023-09-19T08:36:03;0.60;;;0.50;;
21543;SDS011;10933;50.754;11.508;2023-09-19T08:38:30;3.15;;;1.30;;
21543;SDS011;10933;50.754;11.508;2023-09-19T08:41:00;15.00;;;12.75;;
21543;SDS011;10933;50.754;11.508;2023-09-19T08:43:30;1.45;;;0.95;;
21543;SDS011;10933;50.754;11.508;2023-09-19T08:46:03;5.20;;;1.38;;
21543;SDS011;10933;50.754;11.508;2023-09-19T08:48:34;1.15;;;0.70;;
21543;SDS011;10933;50.754;11.508;2023-09-19T08:51:07;1.80;;;0.80;;
21543;SDS011;10933;50.754;11.508;2023-09-19T08:53:41;7.22;;;0.77;;
21543;SDS011;10933;50.754;11.508;2023-09-19T08:56:38;0.90;;;0.50;;
21543;SDS011;10933;50.754;11.508;2023-09-19T08:59:07;2.25;;;0.60;;
21543;SDS011;10933;50.754;11.508;2023-09-19T09:01:33;1.92;;;0.57;;
21543;SDS011;10933;50.754;11.508;2023-09-19T09:04:01;1.55;;;0.70;;
21543;SDS011;10933;50.754;11.508;2023-09-19T09:06:27;1.35;;;1.10;;
21543;SDS011;10933;50.754;11.508;2023-09-19T09:08:54;2.90;;;0.98;;
21543;SDS011;10933;50.754;11.508;2023-09-19T09:11:21;2.70;;;0.52;;
21543;SDS011;10933;50.754;11.508;2023-09-19T09:13:51;0.95;;;0.60;;
21543;SDS011;10933;50.754;11.508;2023-09-19T09:16:17;1.60;;;0.95;;
21543;SDS011;10933;50.754;11.508;2023-09-19T09:18:43;2.65;;;0.70;;
21543;SDS011;10933;50.754;11.508;2023-09-19T09:21:10;1.17;;;0.70;;
21543;SDS011;10933;50.754;11.508;2023-09-19T09:23:40;0.82;;;0.80;;
21543;SDS011;10933;50.754;11.508;2023-09-19T09:26:06;1.13;;;0.70;;
21543;SDS011;10933;50.754;11.508;2023-09-19T09:28:34;1.52;;;0.80;;
21543;SDS011;10933;50.754;11.508;2023-09-19T09:31:04;2.20;;;0.60;;
21543;SDS011;10933;50.754;11.508;2023-09-19T09:33:34;1.70;;;1.60;;
21543;SDS011;10933;50.754;11.508;2023-09-19T09:36:01;0.70;;;0.70;;
21543;SDS011;10933;50.754;11.508;2023-09-19T09:38:30;1.63;;;1.20;;
21543;SDS011;10933;50.754;11.508;2023-09-19T09:41:09;1.15;;;0.90;;
21543;SDS011;10933;50.754;11.508;2023-09-19T09:43:40;1.13;;;0.80;;
21543;SDS011;10933;50.754;11.508;2023-09-19T09:51:42;1.38;;;0.90;;
21543;SDS011;10933;50.754;11.508;2023-09-19T09:54:22;1.52;;;1.38;;
21543;SDS011;10933;50.754;11.508;2023-09-19T09:56:57;1.65;;;1.20;;
21543;SDS011;10933;50.754;11.508;2023-09-19T10:02:38;0.88;;;0.88;;
21543;SDS011;10933;50.754;11.508;2023-09-19T10:05:15;1.08;;;0.98;;
21543;SDS011;10933;50.754;11.508;2023-09-19T10:07:46;7.00;;;1.20;;
21543;SDS011;10933;50.754;11.508;2023-09-19T10:10:29;1.77;;;1.40;;
21543;SDS011;10933;50.754;11.508;2023-09-19T10:13:12;2.25;;;1.77;;
21543;SDS011;10933;50.754;11.508;2023-09-19T10:15:43;1.90;;;1.20;;
21543;SDS011;10933;50.754;11.508;2023-09-19T10:18:20;3.08;;;1.00;;
21543;SDS011;10933;50.754;11.508;2023-09-19T10:20:47;1.45;;;1.35;;
21543;SDS011;10933;50.754;11.508;2023-09-19T10:23:16;2.08;;;1.30;;
21543;SDS011;10933;50.754;11.508;2023-09-19T10:25:48;2.40;;;2.13;;
21543;SDS011;10933;50.754;11.508;2023-09-19T10:28:16;1.23;;;0.95;;
21543;SDS011;10933;50.754;11.508;2023-09-19T10:30:47;1.48;;;1.10;;
21543;SDS011;10933;50.754;11.508;2023-09-19T10:33:18;1.50;;;1.30;;
21543;SDS011;10933;50.754;11.508;2023-09-19T10:35:48;2.40;;;1.15;;
21543;SDS011;10933;50.754;11.508;2023-09-19T10:38:18;1.75;;;1.05;;
21543;SDS011;10933;50.754;11.508;2023-09-19T10:40:49;2.35;;;0.93;;
21543;SDS011;10933;50.754;11.508;2023-09-19T10:43:17;1.52;;;1.00;;
21543;SDS011;10933;50.754;11.508;2023-09-19T10:45:45;1.88;;;1.10;;
21543;SDS011;10933;50.754;11.508;2023-09-19T10:48:14;1.20;;;1.00;;
21543;SDS011;10933;50.754;11.508;2023-09-19T10:53:24;0.80;;;0.80;;
21543;SDS011;10933;50.754;11.508;2023-09-19T10:55:55;2.10;;;1.05;;
21543;SDS011;10933;50.754;11.508;2023-09-19T10:58:28;3.67;;;1.00;;
21543;SDS011;10933;50.754;11.508;2023-09-19T11:01:07;2.92;;;1.00;;
21543;SDS011;10933;50.754;11.508;2023-09-19T11:03:43;1.30;;;1.20;;
21543;SDS011;10933;50.754;11.508;2023-09-19T11:08:57;1.50;;;1.17;;
21543;SDS011;10933;50.754;11.508;2023-09-19T11:14:14;1.42;;;1.10;;
21543;SDS011;10933;50.754;11.508;2023-09-19T11:26:04;1.20;;;1.10;;
21543;SDS011;10933;50.754;11.508;2023-09-19T11:30:45;4.43;;;1.48;;
21543;SDS011;10933;50.754;11.508;2023-09-19T11:33:19;1.52;;;1.30;;
21543;SDS011;10933;50.754;11.508;2023-09-19T11:43:49;5.22;;;1.10;;
21543;SDS011;10933;50.754;11.508;2023-09-19T11:46:17;1.60;;;1.50;;
21543;SDS011;10933;50.754;11.508;2023-09-19T11:48:49;1.30;;;1.00;;
21543;SDS011;10933;50.754;11.508;2023-09-19T11:51:19;1.17;;;1.08;;
21543;SDS011;10933;50.754;11.508;2023-09-19T11:53:53;1.20;;;1.10;;
21543;SDS011;10933;50.754;11.508;2023-09-19T11:56:21;1.50;;;1.10;;
21543;SDS011;10933;50.754;11.508;2023-09-19T11:58:53;3.42;;;1.40;;
21543;SDS011;10933;50.754;11.508;2023-09-19T12:01:24;1.13;;;0.93;;
21543;SDS011;10933;50.754;11.508;2023-09-19T12:03:54;5.38;;;1.48;;
21543;SDS011;10933;50.754;11.508;2023-09-19T12:06:23;3.13;;;1.35;;
21543;SDS011;10933;50.754;11.508;2023-09-19T12:08:51;3.08;;;1.27;;
21543;SDS011;10933;50.754;11.508;2023-09-19T12:11:19;7.68;;;1.25;;
21543;SDS011;10933;50.754;11.508;2023-09-19T12:13:46;1.10;;;1.00;;
21543;SDS011;10933;50.754;11.508;2023-09-19T12:16:20;1.20;;;1.10;;
21543;SDS011;10933;50.754;11.508;2023-09-19T12:18:47;2.22;;;1.40;;
21543;SDS011;10933;50.754;11.508;2023-09-19T12:24:18;1.73;;;1.63;;
21543;SDS011;10933;50.754;11.508;2023-09-19T12:26:45;1.50;;;1.40;;
21543;SDS011;10933;50.754;11.508;2023-09-19T12:29:20;1.85;;;1.70;;
21543;SDS011;10933;50.754;11.508;2023-09-19T12:31:56;2.85;;;1.55;;
21543;SDS011;10933;50.754;11.508;2023-09-19T12:34:27;1.80;;;1.70;;
21543;SDS011;10933;50.754;11.508;2023-09-19T12:37:04;2.28;;;1.77;;
21543;SDS011;10933;50.754;11.508;2023-09-19T12:39:40;1.70;;;1.50;;
21543;SDS011;10933;50.754;11.508;2023-09-19T12:42:14;1.70;;;1.60;;
21543;SDS011;10933;50.754;11.508;2023-09-19T12:44:42;1.80;;;1.70;;
21543;SDS011;10933;50.754;11.508;2023-09-19T12:47:14;1.90;;;1.77;;
21543;SDS011;10933;50.754;11.508;2023-09-19T12:52:34;2.20;;;2.00;;
21543;SDS011;10933;50.754;11.508;2023-09-19T12:55:01;2.55;;;1.40;;
21543;SDS011;10933;50.754;11.508;2023-09-19T12:57:28;1.85;;;1.70;;
21543;SDS011;10933;50.754;11.508;2023-09-19T12:59:57;1.65;;;1.45;;
21543;SDS011;10933;50.754;11.508;2023-09-19T13:02:23;1.55;;;1.30;;
21543;SDS011;10933;50.754;11.508;2023-09-19T13:04:54;1.95;;;1.70;;
21543;SDS011;10933;50.754;11.508;2023-09-19T13:07:40;2.03;;;1.92;;
21543;SDS011;10933;50.754;11.508;2023-09-19T13:10:09;2.65;;;1.80;;
21543;SDS011;10933;50.754;11.508;2023-09-19T13:12:36;1.95;;;1.70;;
21543;SDS011;10933;50.754;11.508;2023-09-19T13:15:07;2.47;;;1.73;;
21543;SDS011;10933;50.754;11.508;2023-09-19T13:17:47;2.67;;;1.73;;
21543;SDS011;10933;50.754;11.508;2023-09-19T13:22:54;1.85;;;1.50;;
21543;SDS011;10933;50.754;11.508;2023-09-19T13:25:25;2.72;;;1.80;;
21543;SDS011;10933;50.754;11.508;2023-09-19T13:27:55;1.85;;;1.45;;
21543;SDS011;10933;50.754;11.508;2023-09-19T13:30:22;2.72;;;1.92;;
21543;SDS011;10933;50.754;11.508;2023-09-19T13:32:50;1.60;;;1.50;;
21543;SDS011;10933;50.754;11.508;2023-09-19T13:35:17;1.80;;;1.70;;
21543;SDS011;10933;50.754;11.508;2023-09-19T13:37:45;1.95;;;1.80;;
21543;SDS011;10933;50.754;11.508;2023-09-19T13:40:14;1.70;;;1.60;;
21543;SDS011;10933;50.754;11.508;2023-09-19T13:42:41;1.65;;;1.55;;
21543;SDS011;10933;50.754;11.508;2023-09-19T13:45:08;2.35;;;2.25;;
21543;SDS011;10933;50.754;11.508;2023-09-19T13:47:40;1.60;;;1.50;;
21543;SDS011;10933;50.754;11.508;2023-09-19T13:50:07;1.60;;;1.50;;
21543;SDS011;10933;50.754;11.508;2023-09-19T13:52:33;2.05;;;1.90;;
21543;SDS011;10933;50.754;11.508;2023-09-19T13:54:59;3.55;;;1.50;;
21543;SDS011;10933;50.754;11.508;2023-09-19T13:57:26;3.47;;;1.95;;
21543;SDS011;10933;50.754;11.508;2023-09-19T13:59:52;2.15;;;1.63;;
21543;SDS011;10933;50.754;11.508;2023-09-19T14:02:19;2.05;;;1.63;;
21543;SDS011;10933;50.754;11.508;2023-09-19T14:04:50;2.38;;;1.65;;
21543;SDS011;10933;50.754;11.508;2023-09-19T14:07:16;1.63;;;1.48;;
21543;SDS011;10933;50.754;11.508;2023-09-19T14:09:45;6.40;;;1.73;;
21543;SDS011;10933;50.754;11.508;2023-09-19T14:12:12;1.70;;;1.60;;
21543;SDS011;10933;50.754;11.508;2023-09-19T14:14:38;3.03;;;1.75;;
21543;SDS011;10933;50.754;11.508;2023-09-19T14:17:04;3.58;;;1.80;;
21543;SDS011;10933;50.754;11.508;2023-09-19T14:19:32;2.35;;;1.83;;
21543;SDS011;10933;50.754;11.508;2023-09-19T14:21:58;2.20;;;2.00;;
21543;SDS011;10933;50.754;11.508;2023-09-19T14:24:27;4.45;;;2.10;;
21543;SDS011;10933;50.754;11.508;2023-09-19T14:26:53;2.17;;;1.88;;
21543;SDS011;10933;50.754;11.508;2023-09-19T14:29:19;2.22;;;2.00;;
21543;SDS011;10933;50.754;11.508;2023-09-19T14:31:45;3.90;;;1.90;;
21543;SDS011;10933;50.754;11.508;2023-09-19T14:34:11;5.82;;;2.13;;
21543;SDS011;10933;50.754;11.508;2023-09-19T14:36:38;1.92;;;1.83;;
21543;SDS011;10933;50.754;11.508;2023-09-19T14:39:04;2.65;;;1.90;;
21543;SDS011;10933;50.754;11.508;2023-09-19T14:41:30;3.60;;;1.90;;
21543;SDS011;10933;50.754;11.508;2023-09-19T14:43:56;1.98;;;1.63;;
21543;SDS011;10933;50.754;11.508;2023-09-19T14:46:23;2.35;;;1.52;;
21543;SDS011;10933;50.754;11.508;2023-09-19T14:48:50;3.20;;;2.00;;
21543;SDS011;10933;50.754;11.508;2023-09-19T14:51:17;3.35;;;2.10;;
21543;SDS011;10933;50.754;11.508;2023-09-19T14:53:46;2.45;;;1.52;;
21543;SDS011;10933;50.754;11.508;2023-09-19T14:56:14;2.40;;;1.73;;
21543;SDS011;10933;50.754;11.508;2023-09-19T14:58:43;2.00;;;1.80;;
21543;SDS011;10933;50.754;11.508;2023-09-19T15:01:10;2.92;;;1.83;;
21543;SDS011;10933;50.754;11.508;2023-09-19T15:03:38;3.90;;;2.08;;
21543;SDS011;10933;50.754;11.508;2023-09-19T15:06:11;2.25;;;1.80;;
21543;SDS011;10933;50.754;11.508;2023-09-19T15:08:44;1.98;;;1.58;;
21543;SDS011;10933;50.754;11.508;2023-09-19T15:11:12;3.22;;;2.08;;
21543;SDS011;10933;50.754;11.508;2023-09-19T15:13:41;2.72;;;2.08;;
21543;SDS011;10933;50.754;11.508;2023-09-19T15:16:08;2.75;;;2.03;;
21543;SDS011;10933;50.754;11.508;2023-09-19T15:18:39;1.95;;;1.85;;
21543;SDS011;10933;50.754;11.508;2023-09-19T15:21:07;2.35;;;2.10;;
21543;SDS011;10933;50.754;11.508;2023-09-19T15:23:36;2.65;;;1.88;;
21543;SDS011;10933;50.754;11.508;2023-09-19T15:26:06;6.13;;;1.60;;
21543;SDS011;10933;50.754;11.508;2023-09-19T15:28:33;3.30;;;1.90;;
21543;SDS011;10933;50.754;11.508;2023-09-19T15:31:03;2.05;;;1.45;;
21543;SDS011;10933;50.754;11.508;2023-09-19T15:33:31;1.95;;;1.70;;
21543;SDS011;10933;50.754;11.508;2023-09-19T15:36:04;2.88;;;2.08;;
21543;SDS011;10933;50.754;11.508;2023-09-19T15:38:54;3.13;;;2.20;;
21543;SDS011;10933;50.754;11.508;2023-09-19T15:41:23;4.25;;;1.60;;
21543;SDS011;10933;50.754;11.508;2023-09-19T15:43:49;3.22;;;2.10;;